sensor_id;sensor_type;location;lat;lon;timestamp;temperature;humidity
51466;DHT22;37542;50.164;9.086;2022-10-16T00:03:35;13.30;74.80
51466;DHT22;37542;50.164;9.086;2022-10-16T00:07:16;13.30;74.90
51466;DHT22;37542;50.164;9.086;2022-10-16T00:11:05;13.30;74.90
51466;DHT22;37542;50.164;9.086;2022-10-16T00:14:47;13.30;75.30
51466;DHT22;37542;50.164;9.086;2022-10-16T00:18:28;13.30;75.10
51466;DHT22;37542;50.164;9.086;2022-10-16T00:22:09;13.30;75.10
51466;DHT22;37542;50.164;9.086;2022-10-16T00:26:01;13.30;75.20
51466;DHT22;37542;50.164;9.086;2022-10-16T00:29:43;13.30;75.50
51466;DHT22;37542;50.164;9.086;2022-10-16T00:33:24;13.30;75.20
51466;DHT22;37542;50.164;9.086;2022-10-16T00:37:05;13.30;75.20
51466;DHT22;37542;50.164;9.086;2022-10-16T00:40:46;13.30;75.20
51466;DHT22;37542;50.164;9.086;2022-10-16T00:48:28;13.30;75.80
51466;DHT22;37542;50.164;9.086;2022-10-16T00:52:10;13.30;75.30
51466;DHT22;37542;50.164;9.086;2022-10-16T00:55:52;13.30;75.40
51466;DHT22;37542;50.164;9.086;2022-10-16T00:59:38;13.30;75.60
51466;DHT22;37542;50.164;9.086;2022-10-16T01:03:25;13.30;75.90
51466;DHT22;37542;50.164;9.086;2022-10-16T01:11:09;13.30;75.70
51466;DHT22;37542;50.164;9.086;2022-10-16T01:15:08;13.40;76.30
51466;DHT22;37542;50.164;9.086;2022-10-16T01:19:03;13.40;76.30
51466;DHT22;37542;50.164;9.086;2022-10-16T01:27:31;13.40;76.40
51466;DHT22;37542;50.164;9.086;2022-10-16T01:31:19;13.40;75.80
51466;DHT22;37542;50.164;9.086;2022-10-16T01:35:08;13.40;75.90
51466;DHT22;37542;50.164;9.086;2022-10-16T01:38:56;13.40;75.90
51466;DHT22;37542;50.164;9.086;2022-10-16T01:42:46;13.40;75.60
51466;DHT22;37542;50.164;9.086;2022-10-16T01:46:32;13.40;75.80
51466;DHT22;37542;50.164;9.086;2022-10-16T01:50:16;13.40;75.70
51466;DHT22;37542;50.164;9.086;2022-10-16T01:54:00;13.40;75.80
51466;DHT22;37542;50.164;9.086;2022-10-16T01:57:45;13.40;75.90
51466;DHT22;37542;50.164;9.086;2022-10-16T02:01:31;13.40;75.90
51466;DHT22;37542;50.164;9.086;2022-10-16T02:05:20;13.40;75.70
51466;DHT22;37542;50.164;9.086;2022-10-16T02:09:07;13.40;75.50
51466;DHT22;37542;50.164;9.086;2022-10-16T02:13:23;13.40;75.40
51466;DHT22;37542;50.164;9.086;2022-10-16T02:17:15;13.40;75.70
51466;DHT22;37542;50.164;9.086;2022-10-16T02:25:13;13.40;75.50
51466;DHT22;37542;50.164;9.086;2022-10-16T02:29:02;13.40;75.30
51466;DHT22;37542;50.164;9.086;2022-10-16T02:32:48;13.40;75.40
51466;DHT22;37542;50.164;9.086;2022-10-16T02:36:29;13.40;75.30
51466;DHT22;37542;50.164;9.086;2022-10-16T02:40:11;13.30;75.10
51466;DHT22;37542;50.164;9.086;2022-10-16T02:43:52;13.30;75.10
51466;DHT22;37542;50.164;9.086;2022-10-16T02:47:35;13.30;75.20
51466;DHT22;37542;50.164;9.086;2022-10-16T02:51:16;13.30;75.10
51466;DHT22;37542;50.164;9.086;2022-10-16T02:54:56;13.30;75.00
51466;DHT22;37542;50.164;9.086;2022-10-16T02:58:37;13.30;75.10
51466;DHT22;37542;50.164;9.086;2022-10-16T03:02:18;13.30;75.10
51466;DHT22;37542;50.164;9.086;2022-10-16T03:05:59;13.30;75.10
51466;DHT22;37542;50.164;9.086;2022-10-16T03:09:39;13.30;75.20
51466;DHT22;37542;50.164;9.086;2022-10-16T03:13:20;13.20;75.20
51466;DHT22;37542;50.164;9.086;2022-10-16T03:17:01;13.20;75.90
51466;DHT22;37542;50.164;9.086;2022-10-16T03:20:45;13.20;75.30
51466;DHT22;37542;50.164;9.086;2022-10-16T03:24:25;13.20;75.30
51466;DHT22;37542;50.164;9.086;2022-10-16T03:28:06;13.20;75.20
51466;DHT22;37542;50.164;9.086;2022-10-16T03:31:47;13.20;75.90
51466;DHT22;37542;50.164;9.086;2022-10-16T03:35:29;13.20;75.20
51466;DHT22;37542;50.164;9.086;2022-10-16T03:39:10;13.20;75.30
51466;DHT22;37542;50.164;9.086;2022-10-16T03:42:51;13.20;75.40
51466;DHT22;37542;50.164;9.086;2022-10-16T03:46:32;13.20;75.40
51466;DHT22;37542;50.164;9.086;2022-10-16T03:50:12;13.20;75.40
51466;DHT22;37542;50.164;9.086;2022-10-16T03:53:53;13.20;75.40
51466;DHT22;37542;50.164;9.086;2022-10-16T03:57:34;13.20;75.40
51466;DHT22;37542;50.164;9.086;2022-10-16T04:01:15;13.20;75.40
51466;DHT22;37542;50.164;9.086;2022-10-16T04:04:56;13.20;75.40
51466;DHT22;37542;50.164;9.086;2022-10-16T04:08:36;13.20;75.40
51466;DHT22;37542;50.164;9.086;2022-10-16T04:12:19;13.20;75.50
51466;DHT22;37542;50.164;9.086;2022-10-16T04:16:00;13.20;75.50
51466;DHT22;37542;50.164;9.086;2022-10-16T04:19:40;13.30;75.60
51466;DHT22;37542;50.164;9.086;2022-10-16T04:23:21;13.30;75.70
51466;DHT22;37542;50.164;9.086;2022-10-16T04:27:03;13.30;75.70
51466;DHT22;37542;50.164;9.086;2022-10-16T04:30:44;13.20;75.60
51466;DHT22;37542;50.164;9.086;2022-10-16T04:34:25;13.30;75.70
51466;DHT22;37542;50.164;9.086;2022-10-16T04:38:05;13.30;75.70
51466;DHT22;37542;50.164;9.086;2022-10-16T04:41:46;13.30;75.80
51466;DHT22;37542;50.164;9.086;2022-10-16T04:45:27;13.30;75.80
51466;DHT22;37542;50.164;9.086;2022-10-16T04:49:08;13.30;75.80
51466;DHT22;37542;50.164;9.086;2022-10-16T04:52:48;13.30;75.80
51466;DHT22;37542;50.164;9.086;2022-10-16T04:56:29;13.30;75.80
51466;DHT22;37542;50.164;9.086;2022-10-16T05:00:10;13.30;75.80
51466;DHT22;37542;50.164;9.086;2022-10-16T05:03:51;13.30;75.80
51466;DHT22;37542;50.164;9.086;2022-10-16T05:07:32;13.40;75.70
51466;DHT22;37542;50.164;9.086;2022-10-16T05:11:13;13.40;75.30
51466;DHT22;37542;50.164;9.086;2022-10-16T05:14:54;13.30;75.50
51466;DHT22;37542;50.164;9.086;2022-10-16T05:18:38;13.40;76.20
51466;DHT22;37542;50.164;9.086;2022-10-16T05:22:19;13.40;75.80
51466;DHT22;37542;50.164;9.086;2022-10-16T05:26:00;13.40;75.80
51466;DHT22;37542;50.164;9.086;2022-10-16T05:29:41;13.40;75.80
51466;DHT22;37542;50.164;9.086;2022-10-16T05:33:23;13.40;75.80
51466;DHT22;37542;50.164;9.086;2022-10-16T05:37:05;13.40;75.90
51466;DHT22;37542;50.164;9.086;2022-10-16T05:40:55;13.40;75.80
51466;DHT22;37542;50.164;9.086;2022-10-16T05:44:36;13.40;76.10
51466;DHT22;37542;50.164;9.086;2022-10-16T05:48:17;13.40;75.90
51466;DHT22;37542;50.164;9.086;2022-10-16T05:51:58;13.40;75.90
51466;DHT22;37542;50.164;9.086;2022-10-16T05:55:39;13.40;75.90
51466;DHT22;37542;50.164;9.086;2022-10-16T05:59:19;13.50;75.90
51466;DHT22;37542;50.164;9.086;2022-10-16T06:03:00;13.50;75.90
51466;DHT22;37542;50.164;9.086;2022-10-16T06:06:41;13.40;75.80
51466;DHT22;37542;50.164;9.086;2022-10-16T06:10:22;13.50;75.90
51466;DHT22;37542;50.164;9.086;2022-10-16T06:14:03;13.50;76.00
51466;DHT22;37542;50.164;9.086;2022-10-16T06:17:47;13.40;75.90
51466;DHT22;37542;50.164;9.086;2022-10-16T06:21:28;13.50;76.00
51466;DHT22;37542;50.164;9.086;2022-10-16T06:25:09;13.50;76.00
51466;DHT22;37542;50.164;9.086;2022-10-16T06:28:50;13.50;76.10
51466;DHT22;37542;50.164;9.086;2022-10-16T06:32:31;13.50;76.10
51466;DHT22;37542;50.164;9.086;2022-10-16T06:36:14;13.50;76.20
51466;DHT22;37542;50.164;9.086;2022-10-16T06:39:56;13.50;76.30
51466;DHT22;37542;50.164;9.086;2022-10-16T06:43:37;13.50;76.20
51466;DHT22;37542;50.164;9.086;2022-10-16T06:47:18;13.50;76.30
51466;DHT22;37542;50.164;9.086;2022-10-16T06:51:04;13.50;76.30
51466;DHT22;37542;50.164;9.086;2022-10-16T06:54:47;13.50;76.40
51466;DHT22;37542;50.164;9.086;2022-10-16T06:58:28;13.50;76.50
51466;DHT22;37542;50.164;9.086;2022-10-16T07:02:08;13.60;76.50
51466;DHT22;37542;50.164;9.086;2022-10-16T07:05:50;13.60;76.60
51466;DHT22;37542;50.164;9.086;2022-10-16T07:09:31;13.60;76.60
51466;DHT22;37542;50.164;9.086;2022-10-16T07:13:11;13.70;76.70
51466;DHT22;37542;50.164;9.086;2022-10-16T07:16:55;13.70;76.70
51466;DHT22;37542;50.164;9.086;2022-10-16T07:20:36;13.70;76.80
51466;DHT22;37542;50.164;9.086;2022-10-16T07:24:17;13.70;76.80
51466;DHT22;37542;50.164;9.086;2022-10-16T07:27:58;13.80;76.90
51466;DHT22;37542;50.164;9.086;2022-10-16T07:31:40;13.90;76.90
51466;DHT22;37542;50.164;9.086;2022-10-16T07:35:21;13.90;76.90
51466;DHT22;37542;50.164;9.086;2022-10-16T07:39:02;14.00;77.00
51466;DHT22;37542;50.164;9.086;2022-10-16T07:42:43;14.00;77.00
51466;DHT22;37542;50.164;9.086;2022-10-16T07:46:24;14.10;77.00
51466;DHT22;37542;50.164;9.086;2022-10-16T07:50:04;14.20;76.90
51466;DHT22;37542;50.164;9.086;2022-10-16T07:53:46;14.20;76.90
51466;DHT22;37542;50.164;9.086;2022-10-16T07:57:27;14.30;76.90
51466;DHT22;37542;50.164;9.086;2022-10-16T08:01:13;14.40;77.00
51466;DHT22;37542;50.164;9.086;2022-10-16T08:04:55;14.50;77.40
51466;DHT22;37542;50.164;9.086;2022-10-16T08:08:36;14.50;77.30
51466;DHT22;37542;50.164;9.086;2022-10-16T08:12:17;14.60;77.30
51466;DHT22;37542;50.164;9.086;2022-10-16T08:15:58;14.70;77.30
51466;DHT22;37542;50.164;9.086;2022-10-16T08:19:39;14.80;77.30
51466;DHT22;37542;50.164;9.086;2022-10-16T08:23:19;14.80;77.40
51466;DHT22;37542;50.164;9.086;2022-10-16T08:27:00;14.90;77.50
51466;DHT22;37542;50.164;9.086;2022-10-16T08:30:41;14.90;77.40
51466;DHT22;37542;50.164;9.086;2022-10-16T08:34:21;15.00;77.40
51466;DHT22;37542;50.164;9.086;2022-10-16T08:38:06;15.10;78.00
51466;DHT22;37542;50.164;9.086;2022-10-16T08:53:56;15.30;76.30
51466;DHT22;37542;50.164;9.086;2022-10-16T08:57:38;15.40;76.50
51466;DHT22;37542;50.164;9.086;2022-10-16T09:01:21;15.40;76.50
51466;DHT22;37542;50.164;9.086;2022-10-16T09:18:44;15.60;76.10
51466;DHT22;37542;50.164;9.086;2022-10-16T09:22:33;15.70;76.00
51466;DHT22;37542;50.164;9.086;2022-10-16T09:26:15;15.70;76.10
51466;DHT22;37542;50.164;9.086;2022-10-16T09:29:57;15.80;75.80
51466;DHT22;37542;50.164;9.086;2022-10-16T09:33:57;15.70;75.70
51466;DHT22;37542;50.164;9.086;2022-10-16T09:37:43;15.80;75.30
51466;DHT22;37542;50.164;9.086;2022-10-16T09:41:27;15.80;75.30
51466;DHT22;37542;50.164;9.086;2022-10-16T09:45:21;15.80;75.30
51466;DHT22;37542;50.164;9.086;2022-10-16T09:49:19;15.90;75.20
51466;DHT22;37542;50.164;9.086;2022-10-16T09:53:13;15.90;75.30
51466;DHT22;37542;50.164;9.086;2022-10-16T09:57:05;15.90;75.20
51466;DHT22;37542;50.164;9.086;2022-10-16T10:00:52;15.90;75.40
51466;DHT22;37542;50.164;9.086;2022-10-16T10:04:41;16.00;75.60
51466;DHT22;37542;50.164;9.086;2022-10-16T10:08:28;16.00;75.60
51466;DHT22;37542;50.164;9.086;2022-10-16T10:12:23;16.10;75.50
51466;DHT22;37542;50.164;9.086;2022-10-16T10:16:05;16.10;75.70
51466;DHT22;37542;50.164;9.086;2022-10-16T10:19:57;16.20;75.40
51466;DHT22;37542;50.164;9.086;2022-10-16T10:23:43;16.20;75.00
51466;DHT22;37542;50.164;9.086;2022-10-16T10:27:35;16.20;75.10
51466;DHT22;37542;50.164;9.086;2022-10-16T10:31:33;16.20;75.40
51466;DHT22;37542;50.164;9.086;2022-10-16T10:40:09;16.30;75.20
51466;DHT22;37542;50.164;9.086;2022-10-16T10:56:47;16.40;75.30
51466;DHT22;37542;50.164;9.086;2022-10-16T11:01:10;16.40;75.60
51466;DHT22;37542;50.164;9.086;2022-10-16T11:08:59;16.60;75.40
51466;DHT22;37542;50.164;9.086;2022-10-16T11:17:10;16.80;75.00
51466;DHT22;37542;50.164;9.086;2022-10-16T11:21:16;16.90;75.10
51466;DHT22;37542;50.164;9.086;2022-10-16T11:25:15;17.00;75.10
51466;DHT22;37542;50.164;9.086;2022-10-16T11:29:13;17.10;74.70
51466;DHT22;37542;50.164;9.086;2022-10-16T11:37:20;17.20;74.00
51466;DHT22;37542;50.164;9.086;2022-10-16T11:41:19;17.20;73.90
51466;DHT22;37542;50.164;9.086;2022-10-16T11:48:54;17.20;73.80
51466;DHT22;37542;50.164;9.086;2022-10-16T11:53:03;17.20;73.60
51466;DHT22;37542;50.164;9.086;2022-10-16T11:57:15;17.20;73.20
51466;DHT22;37542;50.164;9.086;2022-10-16T12:08:52;17.30;72.90
51466;DHT22;37542;50.164;9.086;2022-10-16T12:20:00;17.30;73.50
51466;DHT22;37542;50.164;9.086;2022-10-16T12:24:03;17.30;73.60
51466;DHT22;37542;50.164;9.086;2022-10-16T12:27:45;17.30;73.40
51466;DHT22;37542;50.164;9.086;2022-10-16T12:31:37;17.30;73.30
51466;DHT22;37542;50.164;9.086;2022-10-16T12:35:29;17.30;72.80
51466;DHT22;37542;50.164;9.086;2022-10-16T12:39:22;17.30;73.20
51466;DHT22;37542;50.164;9.086;2022-10-16T12:43:27;17.40;73.10
51466;DHT22;37542;50.164;9.086;2022-10-16T12:55:19;17.60;73.40
51466;DHT22;37542;50.164;9.086;2022-10-16T12:59:14;17.70;73.40
51466;DHT22;37542;50.164;9.086;2022-10-16T13:15:31;18.30;72.40
51466;DHT22;37542;50.164;9.086;2022-10-16T13:23:50;18.40;70.70
51466;DHT22;37542;50.164;9.086;2022-10-16T13:27:54;18.40;70.60
51466;DHT22;37542;50.164;9.086;2022-10-16T13:31:43;18.40;70.50
51466;DHT22;37542;50.164;9.086;2022-10-16T13:35:28;18.40;71.10
51466;DHT22;37542;50.164;9.086;2022-10-16T13:39:15;18.40;71.00
51466;DHT22;37542;50.164;9.086;2022-10-16T13:43:02;18.40;71.20
51466;DHT22;37542;50.164;9.086;2022-10-16T13:46:46;18.40;71.20
51466;DHT22;37542;50.164;9.086;2022-10-16T13:50:27;18.40;71.10
51466;DHT22;37542;50.164;9.086;2022-10-16T13:54:09;18.40;71.80
51466;DHT22;37542;50.164;9.086;2022-10-16T13:57:51;18.40;70.60
51466;DHT22;37542;50.164;9.086;2022-10-16T14:01:41;18.40;70.60
51466;DHT22;37542;50.164;9.086;2022-10-16T14:05:24;18.40;70.00
51466;DHT22;37542;50.164;9.086;2022-10-16T14:13:12;18.50;70.40
51466;DHT22;37542;50.164;9.086;2022-10-16T14:16:58;18.50;70.30
51466;DHT22;37542;50.164;9.086;2022-10-16T14:20:39;18.50;70.30
51466;DHT22;37542;50.164;9.086;2022-10-16T14:24:43;18.60;70.00
51466;DHT22;37542;50.164;9.086;2022-10-16T14:28:24;18.50;69.30
51466;DHT22;37542;50.164;9.086;2022-10-16T14:32:05;18.50;69.60
51466;DHT22;37542;50.164;9.086;2022-10-16T14:36:05;18.50;69.50
51466;DHT22;37542;50.164;9.086;2022-10-16T14:39:54;18.50;68.80
51466;DHT22;37542;50.164;9.086;2022-10-16T14:43:37;18.50;69.60
51466;DHT22;37542;50.164;9.086;2022-10-16T14:47:23;18.50;69.40
51466;DHT22;37542;50.164;9.086;2022-10-16T14:51:13;18.40;69.40
51466;DHT22;37542;50.164;9.086;2022-10-16T14:54:55;18.30;69.30
51466;DHT22;37542;50.164;9.086;2022-10-16T14:58:36;18.30;69.60
51466;DHT22;37542;50.164;9.086;2022-10-16T15:02:30;18.20;69.30
51466;DHT22;37542;50.164;9.086;2022-10-16T15:06:14;18.20;69.30
51466;DHT22;37542;50.164;9.086;2022-10-16T15:09:55;18.20;69.50
51466;DHT22;37542;50.164;9.086;2022-10-16T15:13:37;18.20;69.80
51466;DHT22;37542;50.164;9.086;2022-10-16T15:17:18;18.20;69.80
51466;DHT22;37542;50.164;9.086;2022-10-16T15:20:58;18.10;69.80
51466;DHT22;37542;50.164;9.086;2022-10-16T15:24:39;18.10;69.80
51466;DHT22;37542;50.164;9.086;2022-10-16T15:28:22;18.00;69.90
51466;DHT22;37542;50.164;9.086;2022-10-16T15:32:04;18.00;70.10
51466;DHT22;37542;50.164;9.086;2022-10-16T15:35:50;18.00;70.10
51466;DHT22;37542;50.164;9.086;2022-10-16T15:39:32;18.00;70.00
51466;DHT22;37542;50.164;9.086;2022-10-16T15:43:13;17.90;70.20
51466;DHT22;37542;50.164;9.086;2022-10-16T15:46:54;17.90;70.30
51466;DHT22;37542;50.164;9.086;2022-10-16T15:50:37;17.90;70.50
51466;DHT22;37542;50.164;9.086;2022-10-16T15:54:19;17.90;70.60
51466;DHT22;37542;50.164;9.086;2022-10-16T15:58:03;17.80;70.60
51466;DHT22;37542;50.164;9.086;2022-10-16T16:01:44;17.70;70.60
51466;DHT22;37542;50.164;9.086;2022-10-16T16:05:25;17.70;70.70
51466;DHT22;37542;50.164;9.086;2022-10-16T16:09:07;17.70;70.70
51466;DHT22;37542;50.164;9.086;2022-10-16T16:12:48;17.70;71.40
51466;DHT22;37542;50.164;9.086;2022-10-16T16:16:32;17.60;70.70
51466;DHT22;37542;50.164;9.086;2022-10-16T16:20:18;17.50;70.70
51466;DHT22;37542;50.164;9.086;2022-10-16T16:23:58;17.50;70.80
51466;DHT22;37542;50.164;9.086;2022-10-16T16:27:40;17.40;70.60
51466;DHT22;37542;50.164;9.086;2022-10-16T16:31:24;17.30;70.50
51466;DHT22;37542;50.164;9.086;2022-10-16T16:35:06;17.20;70.80
51466;DHT22;37542;50.164;9.086;2022-10-16T16:38:47;17.20;70.60
51466;DHT22;37542;50.164;9.086;2022-10-16T16:42:31;17.10;70.70
51466;DHT22;37542;50.164;9.086;2022-10-16T16:46:14;17.00;70.80
51466;DHT22;37542;50.164;9.086;2022-10-16T16:49:55;16.90;71.00
51466;DHT22;37542;50.164;9.086;2022-10-16T16:53:36;16.90;71.20
51466;DHT22;37542;50.164;9.086;2022-10-16T16:57:20;16.80;71.10
51466;DHT22;37542;50.164;9.086;2022-10-16T17:01:02;16.70;70.70
51466;DHT22;37542;50.164;9.086;2022-10-16T17:04:43;16.70;70.60
51466;DHT22;37542;50.164;9.086;2022-10-16T17:08:24;16.70;70.50
51466;DHT22;37542;50.164;9.086;2022-10-16T17:12:05;16.50;70.50
51466;DHT22;37542;50.164;9.086;2022-10-16T17:15:46;16.40;70.80
51466;DHT22;37542;50.164;9.086;2022-10-16T17:19:28;16.40;71.20
51466;DHT22;37542;50.164;9.086;2022-10-16T17:23:09;16.30;71.30
51466;DHT22;37542;50.164;9.086;2022-10-16T17:26:51;16.20;71.60
51466;DHT22;37542;50.164;9.086;2022-10-16T17:30:33;16.10;71.80
51466;DHT22;37542;50.164;9.086;2022-10-16T17:34:15;16.10;72.00
51466;DHT22;37542;50.164;9.086;2022-10-16T17:37:56;16.00;72.10
51466;DHT22;37542;50.164;9.086;2022-10-16T17:41:37;16.00;72.20
51466;DHT22;37542;50.164;9.086;2022-10-16T17:45:18;15.90;72.20
51466;DHT22;37542;50.164;9.086;2022-10-16T17:48:59;15.90;72.30
51466;DHT22;37542;50.164;9.086;2022-10-16T17:52:40;15.80;72.30
51466;DHT22;37542;50.164;9.086;2022-10-16T17:56:21;15.70;72.40
51466;DHT22;37542;50.164;9.086;2022-10-16T18:00:04;15.70;72.60
51466;DHT22;37542;50.164;9.086;2022-10-16T18:03:59;15.70;72.70
51466;DHT22;37542;50.164;9.086;2022-10-16T18:07:41;15.60;72.90
51466;DHT22;37542;50.164;9.086;2022-10-16T18:11:22;15.60;72.70
51466;DHT22;37542;50.164;9.086;2022-10-16T18:15:04;15.50;72.70
51466;DHT22;37542;50.164;9.086;2022-10-16T18:18:45;15.50;72.70
51466;DHT22;37542;50.164;9.086;2022-10-16T18:22:27;15.40;72.80
51466;DHT22;37542;50.164;9.086;2022-10-16T18:26:11;15.40;73.40
51466;DHT22;37542;50.164;9.086;2022-10-16T18:29:53;15.30;72.70
51466;DHT22;37542;50.164;9.086;2022-10-16T18:33:48;15.30;72.50
51466;DHT22;37542;50.164;9.086;2022-10-16T18:37:30;15.20;72.70
51466;DHT22;37542;50.164;9.086;2022-10-16T18:41:17;15.10;72.30
51466;DHT22;37542;50.164;9.086;2022-10-16T18:44:58;15.10;72.50
51466;DHT22;37542;50.164;9.086;2022-10-16T18:48:40;15.00;72.40
51466;DHT22;37542;50.164;9.086;2022-10-16T18:52:21;14.90;72.50
51466;DHT22;37542;50.164;9.086;2022-10-16T18:56:03;14.90;72.50
51466;DHT22;37542;50.164;9.086;2022-10-16T18:59:44;14.80;72.50
51466;DHT22;37542;50.164;9.086;2022-10-16T19:03:25;14.70;72.50
51466;DHT22;37542;50.164;9.086;2022-10-16T19:07:06;14.70;73.10
51466;DHT22;37542;50.164;9.086;2022-10-16T19:10:47;14.60;72.90
51466;DHT22;37542;50.164;9.086;2022-10-16T19:14:28;14.60;72.90
51466;DHT22;37542;50.164;9.086;2022-10-16T19:18:09;14.50;73.60
51466;DHT22;37542;50.164;9.086;2022-10-16T19:21:50;14.50;72.90
51466;DHT22;37542;50.164;9.086;2022-10-16T19:25:37;14.40;72.80
51466;DHT22;37542;50.164;9.086;2022-10-16T19:29:19;14.40;73.50
51466;DHT22;37542;50.164;9.086;2022-10-16T19:33:00;14.30;72.70
51466;DHT22;37542;50.164;9.086;2022-10-16T19:36:40;14.30;72.60
51466;DHT22;37542;50.164;9.086;2022-10-16T19:40:21;14.30;72.60
51466;DHT22;37542;50.164;9.086;2022-10-16T19:44:04;14.30;72.50
51466;DHT22;37542;50.164;9.086;2022-10-16T19:47:47;14.20;72.50
51466;DHT22;37542;50.164;9.086;2022-10-16T19:51:29;14.20;73.00
51466;DHT22;37542;50.164;9.086;2022-10-16T19:55:10;14.10;72.10
51466;DHT22;37542;50.164;9.086;2022-10-16T19:58:51;14.10;72.10
51466;DHT22;37542;50.164;9.086;2022-10-16T20:02:34;14.00;72.10
51466;DHT22;37542;50.164;9.086;2022-10-16T20:06:17;14.00;71.90
51466;DHT22;37542;50.164;9.086;2022-10-16T20:10:02;13.90;72.10
51466;DHT22;37542;50.164;9.086;2022-10-16T20:13:43;13.90;72.10
51466;DHT22;37542;50.164;9.086;2022-10-16T20:17:24;13.80;72.00
51466;DHT22;37542;50.164;9.086;2022-10-16T20:21:13;13.80;72.00
51466;DHT22;37542;50.164;9.086;2022-10-16T20:24:55;13.70;72.10
51466;DHT22;37542;50.164;9.086;2022-10-16T20:28:38;13.70;72.10
51466;DHT22;37542;50.164;9.086;2022-10-16T20:32:20;13.50;72.10
51466;DHT22;37542;50.164;9.086;2022-10-16T20:36:01;13.60;72.10
51466;DHT22;37542;50.164;9.086;2022-10-16T20:39:42;13.50;72.10
51466;DHT22;37542;50.164;9.086;2022-10-16T20:43:23;13.50;72.10
51466;DHT22;37542;50.164;9.086;2022-10-16T20:47:04;13.40;72.00
51466;DHT22;37542;50.164;9.086;2022-10-16T20:50:45;13.40;72.10
51466;DHT22;37542;50.164;9.086;2022-10-16T20:54:26;13.30;72.00
51466;DHT22;37542;50.164;9.086;2022-10-16T20:58:10;13.30;72.20
51466;DHT22;37542;50.164;9.086;2022-10-16T21:01:52;13.30;72.20
51466;DHT22;37542;50.164;9.086;2022-10-16T21:05:32;13.30;72.30
51466;DHT22;37542;50.164;9.086;2022-10-16T21:09:13;13.20;72.20
51466;DHT22;37542;50.164;9.086;2022-10-16T21:12:55;13.10;72.00
51466;DHT22;37542;50.164;9.086;2022-10-16T21:16:36;13.10;72.20
51466;DHT22;37542;50.164;9.086;2022-10-16T21:20:17;13.00;72.10
51466;DHT22;37542;50.164;9.086;2022-10-16T21:23:58;13.00;72.20
51466;DHT22;37542;50.164;9.086;2022-10-16T21:27:40;12.90;72.00
51466;DHT22;37542;50.164;9.086;2022-10-16T21:31:21;12.90;72.20
51466;DHT22;37542;50.164;9.086;2022-10-16T21:35:02;12.80;72.10
51466;DHT22;37542;50.164;9.086;2022-10-16T21:38:44;12.80;72.20
51466;DHT22;37542;50.164;9.086;2022-10-16T21:42:25;12.80;72.20
51466;DHT22;37542;50.164;9.086;2022-10-16T21:46:06;12.70;72.20
51466;DHT22;37542;50.164;9.086;2022-10-16T21:49:47;12.60;72.10
51466;DHT22;37542;50.164;9.086;2022-10-16T21:53:28;12.60;72.20
51466;DHT22;37542;50.164;9.086;2022-10-16T21:57:09;12.50;72.10
51466;DHT22;37542;50.164;9.086;2022-10-16T22:00:50;12.50;72.20
51466;DHT22;37542;50.164;9.086;2022-10-16T22:04:30;12.40;72.20
51466;DHT22;37542;50.164;9.086;2022-10-16T22:08:11;12.40;72.10
51466;DHT22;37542;50.164;9.086;2022-10-16T22:11:52;12.30;72.20
51466;DHT22;37542;50.164;9.086;2022-10-16T22:15:33;12.30;72.30
51466;DHT22;37542;50.164;9.086;2022-10-16T22:19:16;12.20;72.20
51466;DHT22;37542;50.164;9.086;2022-10-16T22:22:59;12.20;72.30
51466;DHT22;37542;50.164;9.086;2022-10-16T22:26:40;12.10;72.30
51466;DHT22;37542;50.164;9.086;2022-10-16T22:30:21;12.10;72.40
51466;DHT22;37542;50.164;9.086;2022-10-16T22:34:02;12.00;72.40
51466;DHT22;37542;50.164;9.086;2022-10-16T22:37:44;12.00;72.40
51466;DHT22;37542;50.164;9.086;2022-10-16T22:41:25;11.90;72.30
51466;DHT22;37542;50.164;9.086;2022-10-16T22:45:06;11.90;72.20
51466;DHT22;37542;50.164;9.086;2022-10-16T22:48:47;11.80;72.30
51466;DHT22;37542;50.164;9.086;2022-10-16T22:52:30;11.80;72.30
51466;DHT22;37542;50.164;9.086;2022-10-16T22:56:13;11.80;72.20
51466;DHT22;37542;50.164;9.086;2022-10-16T22:59:55;11.70;72.30
51466;DHT22;37542;50.164;9.086;2022-10-16T23:03:36;11.70;72.40
51466;DHT22;37542;50.164;9.086;2022-10-16T23:07:16;11.60;72.50
51466;DHT22;37542;50.164;9.086;2022-10-16T23:10:57;11.60;72.50
51466;DHT22;37542;50.164;9.086;2022-10-16T23:14:41;11.50;72.50
51466;DHT22;37542;50.164;9.086;2022-10-16T23:18:22;11.50;72.50
51466;DHT22;37542;50.164;9.086;2022-10-16T23:22:02;11.50;72.70
51466;DHT22;37542;50.164;9.086;2022-10-16T23:25:44;11.40;72.90
51466;DHT22;37542;50.164;9.086;2022-10-16T23:29:26;11.40;73.90
51466;DHT22;37542;50.164;9.086;2022-10-16T23:33:07;11.30;74.90
51466;DHT22;37542;50.164;9.086;2022-10-16T23:36:49;11.40;75.20
51466;DHT22;37542;50.164;9.086;2022-10-16T23:40:30;11.50;75.00
51466;DHT22;37542;50.164;9.086;2022-10-16T23:44:10;11.60;74.80
51466;DHT22;37542;50.164;9.086;2022-10-16T23:47:51;11.50;74.50
51466;DHT22;37542;50.164;9.086;2022-10-16T23:51:32;11.60;74.40
51466;DHT22;37542;50.164;9.086;2022-10-16T23:55:13;11.60;74.30
51466;DHT22;37542;50.164;9.086;2022-10-16T23:58:54;11.60;74.20
